sensor_id;sensor_type;location;lat;lon;timestamp;P1;durP1;ratioP1;P2;durP2;ratioP2
21733;SDS011;11029;47.820;10.534;2023-09-12T05:08:20;10.52;;;5.65;;
21733;SDS011;11029;47.820;10.534;2023-09-12T05:10:47;8.05;;;5.70;;
21733;SDS011;11029;47.820;10.534;2023-09-12T05:13:13;8.52;;;6.50;;
21733;SDS011;11029;47.820;10.534;2023-09-12T05:15:41;9.32;;;6.40;;
21733;SDS011;11029;47.820;10.534;2023-09-12T05:18:08;7.38;;;5.68;;
21733;SDS011;11029;47.820;10.534;2023-09-12T05:20:36;7.00;;;5.80;;
21733;SDS011;11029;47.820;10.534;2023-09-12T05:23:03;7.30;;;5.97;;
21733;SDS011;11029;47.820;10.534;2023-09-12T05:25:30;8.73;;;6.03;;
21733;SDS011;11029;47.820;10.534;2023-09-12T05:27:56;7.03;;;6.10;;
21733;SDS011;11029;47.820;10.534;2023-09-12T05:30:23;6.05;;;5.45;;
21733;SDS011;11029;47.820;10.534;2023-09-12T05:32:50;6.70;;;5.60;;
21733;SDS011;11029;47.820;10.534;2023-09-12T05:35:18;9.07;;;6.32;;
21733;SDS011;11029;47.820;10.534;2023-09-12T05:37:49;6.85;;;6.15;;
21733;SDS011;11029;47.820;10.534;2023-09-12T05:40:17;6.90;;;6.20;;
21733;SDS011;11029;47.820;10.534;2023-09-12T05:42:45;9.95;;;6.82;;
21733;SDS011;11029;47.820;10.534;2023-09-12T05:45:12;8.50;;;6.22;;
21733;SDS011;11029;47.820;10.534;2023-09-12T05:47:38;7.38;;;6.60;;
21733;SDS011;11029;47.820;10.534;2023-09-12T05:50:06;6.75;;;5.97;;
21733;SDS011;11029;47.820;10.534;2023-09-12T05:52:33;7.32;;;5.95;;
21733;SDS011;11029;47.820;10.534;2023-09-12T05:55:00;8.23;;;6.38;;
21733;SDS011;11029;47.820;10.534;2023-09-12T05:57:28;9.82;;;6.65;;
21733;SDS011;11029;47.820;10.534;2023-09-12T05:59:55;8.32;;;5.75;;
21733;SDS011;11029;47.820;10.534;2023-09-12T06:02:22;10.35;;;6.07;;
21733;SDS011;11029;47.820;10.534;2023-09-12T06:04:49;8.02;;;6.15;;
21733;SDS011;11029;47.820;10.534;2023-09-12T06:07:16;6.75;;;5.72;;
21733;SDS011;11029;47.820;10.534;2023-09-12T06:09:43;7.18;;;6.10;;
21733;SDS011;11029;47.820;10.534;2023-09-12T06:12:10;7.40;;;5.03;;
21733;SDS011;11029;47.820;10.534;2023-09-12T06:14:37;7.85;;;6.03;;
21733;SDS011;11029;47.820;10.534;2023-09-12T06:17:03;9.20;;;5.90;;
21733;SDS011;11029;47.820;10.534;2023-09-12T06:19:30;8.52;;;6.30;;
21733;SDS011;11029;47.820;10.534;2023-09-12T06:21:57;7.72;;;6.78;;
21733;SDS011;11029;47.820;10.534;2023-09-12T06:24:25;6.88;;;6.18;;
21733;SDS011;11029;47.820;10.534;2023-09-12T06:26:52;7.32;;;6.63;;
21733;SDS011;11029;47.820;10.534;2023-09-12T06:29:19;12.52;;;7.25;;
21733;SDS011;11029;47.820;10.534;2023-09-12T06:31:46;8.98;;;6.90;;
21733;SDS011;11029;47.820;10.534;2023-09-12T06:34:13;8.32;;;6.93;;
21733;SDS011;11029;47.820;10.534;2023-09-12T06:36:40;10.05;;;6.45;;
21733;SDS011;11029;47.820;10.534;2023-09-12T06:39:11;9.98;;;6.97;;
21733;SDS011;11029;47.820;10.534;2023-09-12T06:41:38;11.98;;;8.25;;
21733;SDS011;11029;47.820;10.534;2023-09-12T06:44:04;12.95;;;8.77;;
21733;SDS011;11029;47.820;10.534;2023-09-12T06:46:32;11.18;;;8.50;;
21733;SDS011;11029;47.820;10.534;2023-09-12T06:49:02;14.05;;;8.18;;
21733;SDS011;11029;47.820;10.534;2023-09-12T06:51:29;8.70;;;7.80;;
21733;SDS011;11029;47.820;10.534;2023-09-12T06:54:01;9.73;;;7.80;;
21733;SDS011;11029;47.820;10.534;2023-09-12T06:56:28;11.05;;;7.18;;
21733;SDS011;11029;47.820;10.534;2023-09-12T06:58:54;11.25;;;7.45;;
21733;SDS011;11029;47.820;10.534;2023-09-12T07:01:22;8.07;;;7.25;;
21733;SDS011;11029;47.820;10.534;2023-09-12T07:03:48;8.52;;;6.82;;
21733;SDS011;11029;47.820;10.534;2023-09-12T07:06:20;8.23;;;7.03;;
21733;SDS011;11029;47.820;10.534;2023-09-12T07:08:47;10.00;;;6.57;;
21733;SDS011;11029;47.820;10.534;2023-09-12T07:11:14;7.80;;;7.03;;
21733;SDS011;11029;47.820;10.534;2023-09-12T07:13:41;7.68;;;6.88;;
21733;SDS011;11029;47.820;10.534;2023-09-12T07:16:09;7.88;;;6.70;;
21733;SDS011;11029;47.820;10.534;2023-09-12T07:18:36;7.18;;;6.47;;
21733;SDS011;11029;47.820;10.534;2023-09-12T07:21:04;7.90;;;6.72;;
21733;SDS011;11029;47.820;10.534;2023-09-12T07:23:32;7.45;;;6.63;;
21733;SDS011;11029;47.820;10.534;2023-09-12T07:25:59;7.68;;;6.95;;
21733;SDS011;11029;47.820;10.534;2023-09-12T07:28:26;7.07;;;6.38;;
21733;SDS011;11029;47.820;10.534;2023-09-12T07:30:54;7.93;;;6.30;;
21733;SDS011;11029;47.820;10.534;2023-09-12T07:33:21;7.70;;;6.95;;
21733;SDS011;11029;47.820;10.534;2023-09-12T07:35:48;7.40;;;6.70;;
21733;SDS011;11029;47.820;10.534;2023-09-12T07:38:21;10.50;;;6.97;;
21733;SDS011;11029;47.820;10.534;2023-09-12T07:40:48;9.77;;;6.95;;
21733;SDS011;11029;47.820;10.534;2023-09-12T07:43:15;9.05;;;6.70;;
21733;SDS011;11029;47.820;10.534;2023-09-12T07:45:42;9.15;;;7.03;;
21733;SDS011;11029;47.820;10.534;2023-09-12T07:48:09;8.25;;;6.85;;
21733;SDS011;11029;47.820;10.534;2023-09-12T07:50:37;8.75;;;7.82;;
21733;SDS011;11029;47.820;10.534;2023-09-12T07:53:05;7.90;;;6.95;;
21733;SDS011;11029;47.820;10.534;2023-09-12T07:55:36;8.45;;;7.55;;
21733;SDS011;11029;47.820;10.534;2023-09-12T07:58:14;7.32;;;6.63;;
21733;SDS011;11029;47.820;10.534;2023-09-12T08:00:42;7.57;;;6.65;;
21733;SDS011;11029;47.820;10.534;2023-09-12T08:03:09;8.65;;;6.85;;
21733;SDS011;11029;47.820;10.534;2023-09-12T08:05:36;7.40;;;6.70;;
21733;SDS011;11029;47.820;10.534;2023-09-12T08:08:02;8.23;;;7.10;;
21733;SDS011;11029;47.820;10.534;2023-09-12T08:10:30;9.52;;;7.05;;
21733;SDS011;11029;47.820;10.534;2023-09-12T08:12:56;7.82;;;7.03;;
21733;SDS011;11029;47.820;10.534;2023-09-12T08:15:23;8.50;;;7.03;;
21733;SDS011;11029;47.820;10.534;2023-09-12T08:17:50;8.38;;;7.47;;
21733;SDS011;11029;47.820;10.534;2023-09-12T09:07:01;7.30;;;6.70;;
21733;SDS011;11029;47.820;10.534;2023-09-12T09:09:29;7.13;;;6.53;;
21733;SDS011;11029;47.820;10.534;2023-09-12T09:11:57;8.02;;;6.40;;
21733;SDS011;11029;47.820;10.534;2023-09-12T09:14:24;8.70;;;7.35;;
21733;SDS011;11029;47.820;10.534;2023-09-12T11:54:42;7.50;;;5.28;;
21733;SDS011;11029;47.820;10.534;2023-09-12T11:57:12;8.48;;;5.20;;
21733;SDS011;11029;47.820;10.534;2023-09-12T11:59:41;5.25;;;4.85;;
21733;SDS011;11029;47.820;10.534;2023-09-12T12:02:13;5.07;;;4.68;;
21733;SDS011;11029;47.820;10.534;2023-09-12T12:04:40;6.15;;;5.22;;
21733;SDS011;11029;47.820;10.534;2023-09-12T12:07:08;5.43;;;4.93;;
21733;SDS011;11029;47.820;10.534;2023-09-12T12:09:36;7.45;;;5.40;;
21733;SDS011;11029;47.820;10.534;2023-09-12T12:12:10;5.32;;;4.82;;
21733;SDS011;11029;47.820;10.534;2023-09-12T12:14:39;6.43;;;5.20;;
21733;SDS011;11029;47.820;10.534;2023-09-12T12:17:08;9.20;;;4.65;;
21733;SDS011;11029;47.820;10.534;2023-09-12T12:19:36;8.95;;;5.13;;
21733;SDS011;11029;47.820;10.534;2023-09-12T12:22:04;8.23;;;5.18;;
21733;SDS011;11029;47.820;10.534;2023-09-12T12:24:36;6.32;;;5.18;;
21733;SDS011;11029;47.820;10.534;2023-09-12T12:27:22;5.47;;;4.70;;
21733;SDS011;11029;47.820;10.534;2023-09-12T12:29:49;7.03;;;4.95;;
21733;SDS011;11029;47.820;10.534;2023-09-12T12:32:16;5.38;;;4.47;;
21733;SDS011;11029;47.820;10.534;2023-09-12T12:34:47;5.20;;;4.70;;
21733;SDS011;11029;47.820;10.534;2023-09-12T12:37:35;6.72;;;4.78;;
21733;SDS011;11029;47.820;10.534;2023-09-12T13:35:02;5.72;;;4.40;;
21733;SDS011;11029;47.820;10.534;2023-09-12T13:37:29;6.75;;;4.68;;
21733;SDS011;11029;47.820;10.534;2023-09-12T13:39:57;6.00;;;5.38;;
21733;SDS011;11029;47.820;10.534;2023-09-12T13:42:25;6.18;;;5.25;;
21733;SDS011;11029;47.820;10.534;2023-09-12T13:47:23;7.82;;;4.90;;
21733;SDS011;11029;47.820;10.534;2023-09-12T13:49:51;5.50;;;5.00;;
21733;SDS011;11029;47.820;10.534;2023-09-12T13:52:22;5.15;;;4.75;;
21733;SDS011;11029;47.820;10.534;2023-09-12T13:54:52;5.95;;;4.57;;
21733;SDS011;11029;47.820;10.534;2023-09-12T13:57:21;6.15;;;4.50;;
21733;SDS011;11029;47.820;10.534;2023-09-12T15:04:18;8.63;;;4.82;;
21733;SDS011;11029;47.820;10.534;2023-09-12T15:06:45;6.53;;;5.00;;
21733;SDS011;11029;47.820;10.534;2023-09-12T15:09:12;4.85;;;4.45;;
21733;SDS011;11029;47.820;10.534;2023-09-12T15:11:39;4.93;;;4.50;;
21733;SDS011;11029;47.820;10.534;2023-09-12T15:14:05;6.07;;;4.63;;
21733;SDS011;11029;47.820;10.534;2023-09-12T15:16:32;5.47;;;4.65;;
21733;SDS011;11029;47.820;10.534;2023-09-12T15:19:01;6.40;;;5.20;;
21733;SDS011;11029;47.820;10.534;2023-09-12T15:21:29;6.05;;;4.60;;
21733;SDS011;11029;47.820;10.534;2023-09-12T15:23:56;6.47;;;5.38;;
21733;SDS011;11029;47.820;10.534;2023-09-12T15:26:23;6.35;;;4.95;;
21733;SDS011;11029;47.820;10.534;2023-09-12T15:28:50;5.30;;;4.80;;
21733;SDS011;11029;47.820;10.534;2023-09-12T15:31:17;6.45;;;5.28;;
21733;SDS011;11029;47.820;10.534;2023-09-12T15:33:44;7.30;;;5.55;;
21733;SDS011;11029;47.820;10.534;2023-09-12T15:36:11;5.80;;;5.20;;
21733;SDS011;11029;47.820;10.534;2023-09-12T15:38:38;5.25;;;4.78;;
21733;SDS011;11029;47.820;10.534;2023-09-12T15:41:05;5.35;;;4.85;;
21733;SDS011;11029;47.820;10.534;2023-09-12T15:43:34;5.13;;;4.53;;
21733;SDS011;11029;47.820;10.534;2023-09-12T15:46:01;5.85;;;5.10;;
21733;SDS011;11029;47.820;10.534;2023-09-12T15:48:29;8.60;;;5.30;;
21733;SDS011;11029;47.820;10.534;2023-09-12T15:50:56;6.43;;;5.15;;
21733;SDS011;11029;47.820;10.534;2023-09-12T15:53:23;8.27;;;5.50;;
21733;SDS011;11029;47.820;10.534;2023-09-12T15:55:50;8.43;;;5.85;;
21733;SDS011;11029;47.820;10.534;2023-09-12T15:58:18;8.15;;;6.45;;
21733;SDS011;11029;47.820;10.534;2023-09-12T16:00:45;7.78;;;5.60;;
21733;SDS011;11029;47.820;10.534;2023-09-12T16:03:12;9.40;;;6.50;;
21733;SDS011;11029;47.820;10.534;2023-09-12T16:05:39;9.68;;;6.43;;
21733;SDS011;11029;47.820;10.534;2023-09-12T16:08:07;11.90;;;6.50;;
21733;SDS011;11029;47.820;10.534;2023-09-12T16:10:34;8.68;;;5.72;;
21733;SDS011;11029;47.820;10.534;2023-09-12T16:13:00;8.88;;;6.47;;
21733;SDS011;11029;47.820;10.534;2023-09-12T20:53:12;4.63;;;3.00;;
21733;SDS011;11029;47.820;10.534;2023-09-12T20:55:43;4.07;;;3.20;;
21733;SDS011;11029;47.820;10.534;2023-09-12T20:58:10;4.07;;;3.20;;
21733;SDS011;11029;47.820;10.534;2023-09-12T21:00:40;3.88;;;3.22;;
21733;SDS011;11029;47.820;10.534;2023-09-12T21:03:07;4.63;;;3.33;;
21733;SDS011;11029;47.820;10.534;2023-09-12T21:05:34;4.20;;;3.67;;
21733;SDS011;11029;47.820;10.534;2023-09-12T21:08:01;3.22;;;2.90;;
21733;SDS011;11029;47.820;10.534;2023-09-12T21:10:28;3.55;;;2.97;;
21733;SDS011;11029;47.820;10.534;2023-09-12T21:12:55;2.85;;;2.65;;
21733;SDS011;11029;47.820;10.534;2023-09-12T21:15:22;3.50;;;2.97;;
21733;SDS011;11029;47.820;10.534;2023-09-12T21:17:52;4.65;;;2.78;;
21733;SDS011;11029;47.820;10.534;2023-09-12T21:20:19;3.47;;;3.10;;
21733;SDS011;11029;47.820;10.534;2023-09-12T21:22:45;3.40;;;2.63;;
21733;SDS011;11029;47.820;10.534;2023-09-12T21:25:12;3.45;;;2.63;;
21733;SDS011;11029;47.820;10.534;2023-09-12T21:27:39;3.28;;;2.70;;
21733;SDS011;11029;47.820;10.534;2023-09-12T21:30:06;3.35;;;2.63;;
21733;SDS011;11029;47.820;10.534;2023-09-12T21:32:34;4.43;;;2.85;;
21733;SDS011;11029;47.820;10.534;2023-09-12T21:35:11;3.63;;;3.20;;
21733;SDS011;11029;47.820;10.534;2023-09-12T21:37:42;5.30;;;3.30;;
21733;SDS011;11029;47.820;10.534;2023-09-12T21:40:11;5.40;;;3.10;;
21733;SDS011;11029;47.820;10.534;2023-09-12T21:42:39;3.80;;;3.00;;
21733;SDS011;11029;47.820;10.534;2023-09-12T21:45:07;3.92;;;3.15;;
21733;SDS011;11029;47.820;10.534;2023-09-12T21:47:39;3.97;;;3.38;;
21733;SDS011;11029;47.820;10.534;2023-09-12T21:50:07;3.50;;;3.20;;
21733;SDS011;11029;47.820;10.534;2023-09-12T21:52:34;5.32;;;2.90;;
21733;SDS011;11029;47.820;10.534;2023-09-12T21:55:01;4.23;;;2.90;;
21733;SDS011;11029;47.820;10.534;2023-09-12T21:57:31;4.10;;;3.25;;
21733;SDS011;11029;47.820;10.534;2023-09-12T22:00:00;3.10;;;2.80;;
21733;SDS011;11029;47.820;10.534;2023-09-12T22:02:47;3.53;;;3.07;;
21733;SDS011;11029;47.820;10.534;2023-09-12T22:05:16;4.00;;;3.10;;
21733;SDS011;11029;47.820;10.534;2023-09-12T22:07:43;3.13;;;2.85;;
21733;SDS011;11029;47.820;10.534;2023-09-12T22:10:11;4.65;;;3.05;;
21733;SDS011;11029;47.820;10.534;2023-09-12T22:12:39;3.22;;;2.90;;
21733;SDS011;11029;47.820;10.534;2023-09-12T22:15:06;4.43;;;2.70;;
21733;SDS011;11029;47.820;10.534;2023-09-12T22:17:34;2.83;;;2.50;;
21733;SDS011;11029;47.820;10.534;2023-09-12T22:20:02;3.38;;;3.03;;
21733;SDS011;11029;47.820;10.534;2023-09-12T22:22:29;5.50;;;3.10;;
21733;SDS011;11029;47.820;10.534;2023-09-12T22:24:56;3.90;;;3.50;;
21733;SDS011;11029;47.820;10.534;2023-09-12T22:27:23;3.22;;;3.00;;
21733;SDS011;11029;47.820;10.534;2023-09-12T22:29:51;3.33;;;3.03;;
21733;SDS011;11029;47.820;10.534;2023-09-12T22:32:19;3.67;;;2.75;;
21733;SDS011;11029;47.820;10.534;2023-09-12T22:34:46;4.55;;;3.22;;
21733;SDS011;11029;47.820;10.534;2023-09-12T22:37:12;3.40;;;3.10;;
21733;SDS011;11029;47.820;10.534;2023-09-12T22:39:39;3.75;;;3.35;;
21733;SDS011;11029;47.820;10.534;2023-09-12T22:42:06;3.90;;;3.40;;
21733;SDS011;11029;47.820;10.534;2023-09-12T22:44:33;3.00;;;2.70;;
21733;SDS011;11029;47.820;10.534;2023-09-12T22:47:00;3.35;;;3.05;;
21733;SDS011;11029;47.820;10.534;2023-09-12T22:49:27;3.97;;;3.45;;
21733;SDS011;11029;47.820;10.534;2023-09-12T22:51:53;3.13;;;2.92;;
21733;SDS011;11029;47.820;10.534;2023-09-12T22:54:20;3.45;;;3.13;;
21733;SDS011;11029;47.820;10.534;2023-09-12T22:56:47;3.60;;;3.30;;
21733;SDS011;11029;47.820;10.534;2023-09-12T22:59:14;4.60;;;3.30;;
21733;SDS011;11029;47.820;10.534;2023-09-12T23:01:40;3.40;;;3.10;;
21733;SDS011;11029;47.820;10.534;2023-09-12T23:04:07;4.03;;;3.50;;
21733;SDS011;11029;47.820;10.534;2023-09-12T23:06:34;4.20;;;3.45;;
21733;SDS011;11029;47.820;10.534;2023-09-12T23:09:01;3.97;;;3.45;;
21733;SDS011;11029;47.820;10.534;2023-09-12T23:11:30;3.67;;;3.38;;
21733;SDS011;11029;47.820;10.534;2023-09-12T23:13:57;4.47;;;3.40;;
21733;SDS011;11029;47.820;10.534;2023-09-12T23:16:25;4.50;;;3.03;;
21733;SDS011;11029;47.820;10.534;2023-09-12T23:18:52;3.70;;;3.30;;
21733;SDS011;11029;47.820;10.534;2023-09-12T23:21:19;3.67;;;3.37;;
21733;SDS011;11029;47.820;10.534;2023-09-12T23:23:46;3.45;;;3.15;;
21733;SDS011;11029;47.820;10.534;2023-09-12T23:26:13;3.70;;;3.13;;
21733;SDS011;11029;47.820;10.534;2023-09-12T23:28:40;3.80;;;3.17;;
21733;SDS011;11029;47.820;10.534;2023-09-12T23:31:06;3.63;;;3.28;;
21733;SDS011;11029;47.820;10.534;2023-09-12T23:33:33;4.13;;;3.28;;
21733;SDS011;11029;47.820;10.534;2023-09-12T23:36:00;4.53;;;3.22;;
21733;SDS011;11029;47.820;10.534;2023-09-12T23:38:27;3.58;;;3.28;;
21733;SDS011;11029;47.820;10.534;2023-09-12T23:40:54;3.65;;;3.22;;
21733;SDS011;11029;47.820;10.534;2023-09-12T23:43:21;4.50;;;3.00;;
21733;SDS011;11029;47.820;10.534;2023-09-12T23:45:47;3.77;;;2.90;;
21733;SDS011;11029;47.820;10.534;2023-09-12T23:48:14;4.13;;;3.20;;
21733;SDS011;11029;47.820;10.534;2023-09-12T23:50:41;5.45;;;3.10;;
21733;SDS011;11029;47.820;10.534;2023-09-12T23:53:08;4.15;;;3.10;;
21733;SDS011;11029;47.820;10.534;2023-09-12T23:55:35;3.53;;;2.80;;
21733;SDS011;11029;47.820;10.534;2023-09-12T23:58:02;3.97;;;3.17;;
